createdAt,value
2016-08-25T00:00:13.045Z,0
2016-08-25T00:01:13.040Z,0
2016-08-25T00:02:13.021Z,0
2016-08-25T00:03:13.021Z,0
2016-08-25T00:04:13.725Z,0
2016-08-25T00:05:13.021Z,0
2016-08-25T00:06:12.449Z,0
2016-08-25T00:07:12.994Z,0
2016-08-25T00:08:12.281Z,0
2016-08-25T00:09:12.981Z,0
2016-08-25T00:10:12.981Z,0
2016-08-25T00:11:12.969Z,0
2016-08-25T00:12:12.961Z,0
2016-08-25T00:13:13.666Z,0
2016-08-25T00:14:13.656Z,0
2016-08-25T00:15:12.937Z,0
2016-08-25T00:16:12.936Z,0
2016-08-25T00:17:13.633Z,0
2016-08-25T00:18:13.633Z,0
2016-08-25T00:19:12.929Z,0
2016-08-25T00:20:12.926Z,0
2016-08-25T00:21:12.188Z,0
2016-08-25T00:22:13.616Z,0
2016-08-25T00:23:12.887Z,0
2016-08-25T00:24:12.168Z,0
2016-08-25T00:25:13.586Z,0
2016-08-25T00:26:12.866Z,0
2016-08-25T00:27:12.153Z,0
2016-08-25T00:28:12.855Z,0
2016-08-25T00:29:13.559Z,0
2016-08-25T00:30:13.551Z,0
2016-08-25T00:31:13.545Z,0
2016-08-25T00:32:14.238Z,0
2016-08-25T00:33:13.540Z,0
2016-08-25T00:34:12.812Z,0
2016-08-25T00:35:14.213Z,0
2016-08-25T00:36:13.527Z,0
2016-08-25T00:37:12.086Z,0
2016-08-25T00:38:12.791Z,0
2016-08-25T00:39:12.777Z,0
2016-08-25T00:40:12.784Z,0
2016-08-25T00:41:12.762Z,0
2016-08-25T00:42:13.468Z,0
2016-08-25T00:43:12.771Z,0
2016-08-25T00:44:12.746Z,0
2016-08-25T00:45:14.171Z,0
2016-08-25T00:46:12.725Z,0
2016-08-25T00:47:13.425Z,0
2016-08-25T00:48:13.426Z,0
2016-08-25T00:49:12.709Z,0
2016-08-25T00:50:12.704Z,0
2016-08-25T00:51:11.985Z,0
2016-08-25T00:52:13.412Z,0
2016-08-25T00:53:11.974Z,0
2016-08-25T00:54:11.961Z,0
2016-08-25T00:55:13.384Z,0
2016-08-25T00:56:13.572Z,0
2016-08-25T00:57:11.951Z,0
2016-08-25T00:58:12.652Z,0
2016-08-25T00:59:11.950Z,0
2016-08-25T01:00:12.634Z,0
2016-08-25T01:01:14.061Z,0
2016-08-25T01:02:14.041Z,0
2016-08-25T01:03:11.906Z,0
2016-08-25T01:04:13.321Z,0
2016-08-25T01:05:11.881Z,0
2016-08-25T01:06:14.062Z,0
2016-08-25T01:07:12.583Z,0
2016-08-25T01:08:13.292Z,0
2016-08-25T01:09:12.569Z,0
2016-08-25T01:10:13.262Z,0
2016-08-25T01:11:12.559Z,0
2016-08-25T01:12:13.257Z,0
2016-08-25T01:13:11.826Z,0
2016-08-25T01:14:13.238Z,0
2016-08-25T01:15:12.518Z,0
2016-08-25T01:16:13.926Z,0
2016-08-25T01:17:13.974Z,0
2016-08-25T01:18:12.500Z,0
2016-08-25T01:19:12.495Z,0
2016-08-25T01:20:13.916Z,0
2016-08-25T01:21:12.484Z,0
2016-08-25T01:22:12.474Z,0
2016-08-25T01:23:13.887Z,0
2016-08-25T01:24:11.744Z,0
2016-08-25T01:25:13.171Z,0
2016-08-25T01:26:12.440Z,0
2016-08-25T01:27:11.733Z,0
2016-08-25T01:28:13.135Z,0
2016-08-25T01:29:12.423Z,0
2016-08-25T01:30:12.423Z,0
2016-08-25T01:31:13.113Z,0
2016-08-25T01:32:13.106Z,0
2016-08-25T01:33:12.394Z,0
2016-08-25T01:34:11.686Z,0
2016-08-25T01:35:12.427Z,0
2016-08-25T01:36:11.673Z,0
2016-08-25T01:37:13.066Z,0
2016-08-25T01:38:12.363Z,0
2016-08-25T01:39:13.058Z,0
2016-08-25T01:40:13.046Z,0
2016-08-25T01:41:12.339Z,0
2016-08-25T01:42:13.046Z,0
2016-08-25T01:43:12.317Z,0
2016-08-25T01:44:13.016Z,0
2016-08-25T01:45:13.014Z,0
2016-08-25T01:46:13.011Z,0
2016-08-25T01:47:12.298Z,0
2016-08-25T01:48:12.278Z,0
2016-08-25T01:49:11.567Z,0
2016-08-25T01:50:12.979Z,0
2016-08-25T01:51:12.261Z,0
2016-08-25T01:52:12.972Z,0
2016-08-25T01:53:12.243Z,0
2016-08-25T01:54:12.945Z,0
2016-08-25T01:55:13.566Z,0
2016-08-25T01:56:12.927Z,0
2016-08-25T01:57:12.217Z,0
2016-08-25T01:58:11.500Z,0
2016-08-25T01:59:12.196Z,0
2016-08-25T02:00:13.615Z,0
2016-08-25T02:01:12.894Z,0
2016-08-25T02:02:12.183Z,0
2016-08-25T02:03:13.594Z,0
2016-08-25T02:04:12.165Z,0
2016-08-25T02:05:12.154Z,0
2016-08-25T02:06:11.454Z,0
2016-08-25T02:07:12.140Z,0
2016-08-25T02:08:12.133Z,0
2016-08-25T02:09:12.834Z,0
2016-08-25T02:10:13.545Z,0
2016-08-25T02:11:12.816Z,0
2016-08-25T02:12:12.103Z,0
2016-08-25T02:13:12.800Z,0
2016-08-25T02:14:12.088Z,0
2016-08-25T02:15:12.079Z,0
2016-08-25T02:16:12.082Z,0
2016-08-25T02:17:13.479Z,0
2016-08-25T02:18:12.761Z,0
2016-08-25T02:19:11.344Z,0
2016-08-25T02:20:11.334Z,0
2016-08-25T02:21:12.040Z,0
2016-08-25T02:22:12.738Z,0
2016-08-25T02:23:12.026Z,0
2016-08-25T02:24:12.718Z,0
2016-08-25T02:25:12.718Z,0
2016-08-25T02:26:13.404Z,0
2016-08-25T02:27:11.991Z,0
2016-08-25T02:28:11.984Z,0
2016-08-25T02:29:12.683Z,0
2016-08-25T02:30:11.967Z,0
2016-08-25T02:31:11.257Z,0
2016-08-25T02:32:13.359Z,0
2016-08-25T02:33:11.949Z,0
2016-08-25T02:34:12.653Z,0
2016-08-25T02:35:11.224Z,0
2016-08-25T02:36:11.932Z,0
2016-08-25T02:37:11.202Z,0
2016-08-25T02:38:11.917Z,0
2016-08-25T02:39:11.190Z,0
2016-08-25T02:40:12.599Z,0
2016-08-25T02:41:11.919Z,0
2016-08-25T02:42:12.581Z,0
2016-08-25T02:43:11.864Z,0
2016-08-25T02:44:11.857Z,0
2016-08-25T02:45:12.564Z,0
2016-08-25T02:46:11.845Z,0
2016-08-25T02:47:11.843Z,0
2016-08-25T02:48:11.119Z,0
2016-08-25T02:49:11.825Z,0
2016-08-25T02:50:13.229Z,0
2016-08-25T02:51:11.804Z,0
2016-08-25T02:52:11.804Z,0
2016-08-25T02:53:11.788Z,0
2016-08-25T02:54:11.782Z,0
2016-08-25T02:55:12.486Z,0
2016-08-25T02:56:12.482Z,0
2016-08-25T02:57:12.470Z,0
2016-08-25T02:58:12.460Z,0
2016-08-25T02:59:11.741Z,0
2016-08-25T03:00:12.458Z,0
2016-08-25T03:01:12.435Z,0
2016-08-25T03:02:12.424Z,0
2016-08-25T03:03:12.427Z,0
2016-08-25T03:04:13.119Z,0
2016-08-25T03:05:13.119Z,0
2016-08-25T03:06:10.989Z,0
2016-08-25T03:07:11.739Z,0
2016-08-25T03:08:11.671Z,0
2016-08-25T03:09:11.673Z,0
2016-08-25T03:10:12.376Z,0
2016-08-25T03:11:12.366Z,0
2016-08-25T03:12:11.679Z,0
2016-08-25T03:13:10.939Z,0
2016-08-25T03:14:11.660Z,0
2016-08-25T03:15:12.340Z,0
2016-08-25T03:16:11.620Z,0
2016-08-25T03:17:11.622Z,0
2016-08-25T03:18:11.606Z,0
2016-08-25T03:19:13.002Z,0
2016-08-25T03:20:12.287Z,0
2016-08-25T03:21:11.574Z,0
2016-08-25T03:22:11.566Z,0
2016-08-25T03:23:12.975Z,0
2016-08-25T03:24:11.546Z,0
2016-08-25T03:25:12.961Z,0
2016-08-25T03:26:12.239Z,0
2016-08-25T03:27:11.523Z,0
2016-08-25T03:28:11.522Z,0
2016-08-25T03:29:11.513Z,0
2016-08-25T03:30:11.507Z,0
2016-08-25T03:31:11.500Z,0
2016-08-25T03:32:10.781Z,0
2016-08-25T03:33:10.771Z,0
2016-08-25T03:34:12.887Z,0
2016-08-25T03:35:11.474Z,0
2016-08-25T03:36:10.748Z,0
2016-08-25T03:37:11.458Z,0
2016-08-25T03:38:10.737Z,0
2016-08-25T03:39:12.137Z,0
2016-08-25T03:40:12.143Z,0
2016-08-25T03:41:11.438Z,0
2016-08-25T03:42:12.119Z,0
2016-08-25T03:43:11.401Z,0
2016-08-25T03:44:11.390Z,0
2016-08-25T03:45:12.084Z,0
2016-08-25T03:46:11.376Z,0
2016-08-25T03:47:11.365Z,0
2016-08-25T03:48:12.061Z,0
2016-08-25T03:49:10.643Z,0
2016-08-25T03:50:10.642Z,0
2016-08-25T03:51:12.039Z,0
2016-08-25T03:52:11.336Z,0
2016-08-25T03:53:11.324Z,0
2016-08-25T03:54:11.312Z,0
2016-08-25T03:55:11.508Z,0
2016-08-25T03:56:11.297Z,0
2016-08-25T03:57:11.992Z,0
2016-08-25T03:58:12.700Z,0
2016-08-25T03:59:11.983Z,0
2016-08-25T04:00:11.264Z,4
2016-08-25T04:01:10.556Z,0
2016-08-25T04:02:11.265Z,0
2016-08-25T04:03:10.538Z,4
2016-08-25T04:04:10.538Z,0
2016-08-25T04:05:11.225Z,4
2016-08-25T04:06:11.928Z,4
2016-08-25T04:07:11.211Z,8
2016-08-25T04:08:10.493Z,8
2016-08-25T04:09:12.612Z,8
2016-08-25T04:10:12.619Z,8
2016-08-25T04:11:11.180Z,12
2016-08-25T04:12:11.167Z,12
2016-08-25T04:13:10.456Z,16
2016-08-25T04:14:11.857Z,20
2016-08-25T04:15:11.142Z,20
2016-08-25T04:16:11.156Z,28
2016-08-25T04:17:11.839Z,28
2016-08-25T04:18:10.468Z,36
2016-08-25T04:19:11.119Z,40
2016-08-25T04:20:11.104Z,44
2016-08-25T04:21:11.099Z,52
2016-08-25T04:22:10.382Z,60
2016-08-25T04:23:10.377Z,68
2016-08-25T04:24:11.071Z,76
2016-08-25T04:25:11.782Z,84
2016-08-25T04:26:12.488Z,96
2016-08-25T04:27:11.765Z,108
2016-08-25T04:28:11.039Z,116
2016-08-25T04:29:11.040Z,128
2016-08-25T04:30:11.032Z,144
2016-08-25T04:31:11.020Z,156
2016-08-25T04:32:10.318Z,172
2016-08-25T04:33:10.299Z,188
2016-08-25T04:34:10.331Z,204
2016-08-25T04:35:11.822Z,220
2016-08-25T04:36:11.712Z,236
2016-08-25T04:37:11.698Z,252
2016-08-25T04:38:11.034Z,272
2016-08-25T04:39:11.684Z,288
2016-08-25T04:40:10.237Z,308
2016-08-25T04:41:10.940Z,328
2016-08-25T04:42:10.927Z,348
2016-08-25T04:43:10.919Z,364
2016-08-25T04:44:10.919Z,388
2016-08-25T04:45:10.906Z,408
2016-08-25T04:46:11.619Z,428
2016-08-25T04:47:10.979Z,448
2016-08-25T04:48:10.176Z,468
2016-08-25T04:49:10.170Z,488
2016-08-25T04:50:10.164Z,508
2016-08-25T04:51:10.857Z,528
2016-08-25T04:52:10.142Z,548
2016-08-25T04:53:10.844Z,568
2016-08-25T04:54:10.842Z,588
2016-08-25T04:55:10.833Z,604
2016-08-25T04:56:10.119Z,624
2016-08-25T04:57:10.812Z,648
2016-08-25T04:58:10.097Z,664
2016-08-25T04:59:10.806Z,684
2016-08-25T05:00:10.791Z,700
2016-08-25T05:01:10.071Z,716
2016-08-25T05:02:10.779Z,736
2016-08-25T05:03:10.769Z,752
2016-08-25T05:04:10.757Z,768
2016-08-25T05:05:10.746Z,784
2016-08-25T05:06:10.745Z,800
2016-08-25T05:07:10.747Z,816
2016-08-25T05:08:11.441Z,836
2016-08-25T05:09:10.007Z,848
2016-08-25T05:10:10.705Z,864
2016-08-25T05:11:10.704Z,880
2016-08-25T05:12:10.691Z,896
2016-08-25T05:13:10.085Z,908
2016-08-25T05:14:10.673Z,924
2016-08-25T05:15:09.956Z,936
2016-08-25T05:16:10.661Z,948
2016-08-25T05:17:10.663Z,964
2016-08-25T05:18:09.931Z,976
2016-08-25T05:19:11.347Z,992
2016-08-25T05:20:09.927Z,1000
2016-08-25T05:21:09.912Z,1016
2016-08-25T05:22:09.905Z,1028
2016-08-25T05:23:10.655Z,1040
2016-08-25T05:24:11.348Z,1052
2016-08-25T05:25:09.889Z,1064
2016-08-25T05:26:09.875Z,1076
2016-08-25T05:27:10.569Z,1084
2016-08-25T05:28:10.574Z,1096
2016-08-25T05:29:10.556Z,1104
2016-08-25T05:30:09.889Z,1120
2016-08-25T05:31:11.258Z,1128
2016-08-25T05:32:09.830Z,1140
2016-08-25T05:33:10.582Z,1148
2016-08-25T05:34:11.238Z,1156
2016-08-25T05:35:09.808Z,1168
2016-08-25T05:36:09.796Z,1176
2016-08-25T05:37:11.205Z,1184
2016-08-25T05:38:10.489Z,1192
2016-08-25T05:39:10.484Z,1204
2016-08-25T05:40:11.185Z,1212
2016-08-25T05:41:11.186Z,1220
2016-08-25T05:42:11.165Z,1228
2016-08-25T05:43:09.753Z,1236
2016-08-25T05:44:11.158Z,1244
2016-08-25T05:45:11.868Z,1252
2016-08-25T05:46:11.159Z,1260
2016-08-25T05:47:11.836Z,1268
2016-08-25T05:48:11.126Z,1280
2016-08-25T05:49:11.112Z,1284
2016-08-25T05:50:10.397Z,1292
2016-08-25T05:51:10.388Z,1300
2016-08-25T05:52:10.374Z,1308
2016-08-25T05:53:11.085Z,1316
2016-08-25T05:54:10.372Z,1324
2016-08-25T05:55:11.060Z,1328
2016-08-25T05:56:11.269Z,1336
2016-08-25T05:57:11.051Z,1348
2016-08-25T05:58:10.333Z,1352
2016-08-25T05:59:10.330Z,1360
2016-08-25T06:00:10.333Z,1364
2016-08-25T06:01:11.727Z,1372
2016-08-25T06:02:11.013Z,1376
2016-08-25T06:03:11.722Z,1384
2016-08-25T06:04:10.298Z,1388
2016-08-25T06:05:09.575Z,1396
2016-08-25T06:06:10.985Z,1404
2016-08-25T06:07:10.273Z,1408
2016-08-25T06:08:10.967Z,1412
2016-08-25T06:09:10.255Z,1420
2016-08-25T06:10:10.242Z,1424
2016-08-25T06:11:10.236Z,1428
2016-08-25T06:12:10.940Z,1436
2016-08-25T06:13:10.219Z,1440
2016-08-25T06:14:09.511Z,1444
2016-08-25T06:15:10.237Z,1448
2016-08-25T06:16:10.916Z,1452
2016-08-25T06:17:09.481Z,1464
2016-08-25T06:18:10.892Z,1464
2016-08-25T06:19:10.185Z,1444
2016-08-25T06:20:10.170Z,1480
2016-08-25T06:21:10.169Z,1484
2016-08-25T06:22:10.213Z,1488
2016-08-25T06:23:10.858Z,1492
2016-08-25T06:24:10.151Z,1496
2016-08-25T06:25:11.559Z,1504
2016-08-25T06:26:10.128Z,1508
2016-08-25T06:27:10.129Z,1512
2016-08-25T06:28:10.122Z,1520
2016-08-25T06:29:10.110Z,1524
2016-08-25T06:30:10.102Z,1528
2016-08-25T06:31:10.803Z,1536
2016-08-25T06:32:10.089Z,1536
2016-08-25T06:33:10.078Z,1540
2016-08-25T06:34:10.076Z,1548
2016-08-25T06:35:11.481Z,1552
2016-08-25T06:36:10.760Z,1560
2016-08-25T06:37:10.059Z,1556
2016-08-25T06:38:10.755Z,1564
2016-08-25T06:39:10.031Z,1568
2016-08-25T06:40:10.029Z,1576
2016-08-25T06:41:10.022Z,1580
2016-08-25T06:42:10.011Z,1584
2016-08-25T06:43:10.014Z,1592
2016-08-25T06:44:10.009Z,1596
2016-08-25T06:45:10.704Z,1600
2016-08-25T06:46:10.695Z,1604
2016-08-25T06:47:09.270Z,1608
2016-08-25T06:48:09.267Z,1616
2016-08-25T06:49:09.973Z,1620
2016-08-25T06:50:09.963Z,1628
2016-08-25T06:51:10.661Z,1632
2016-08-25T06:52:10.657Z,1632
2016-08-25T06:53:09.234Z,1640
2016-08-25T06:54:09.942Z,1648
2016-08-25T06:55:09.931Z,1648
2016-08-25T06:56:09.213Z,1652
2016-08-25T06:57:09.916Z,1656
2016-08-25T06:58:10.620Z,1660
2016-08-25T06:59:09.196Z,1664
2016-08-25T07:00:09.889Z,1672
2016-08-25T07:01:10.594Z,1672
2016-08-25T07:02:09.177Z,1676
2016-08-25T07:03:09.871Z,1680
2016-08-25T07:04:09.162Z,1680
2016-08-25T07:05:09.165Z,1684
2016-08-25T07:06:09.144Z,1688
2016-08-25T07:07:10.553Z,1696
2016-08-25T07:08:09.838Z,1696
2016-08-25T07:09:09.135Z,1708
2016-08-25T07:10:10.536Z,1708
2016-08-25T07:11:09.817Z,1712
2016-08-25T07:12:11.223Z,1720
2016-08-25T07:13:09.809Z,1724
2016-08-25T07:14:10.517Z,1724
2016-08-25T07:15:09.795Z,1732
2016-08-25T07:16:11.204Z,1740
2016-08-25T07:17:10.491Z,1744
2016-08-25T07:18:09.819Z,1744
2016-08-25T07:19:10.487Z,1748
2016-08-25T07:20:09.758Z,1756
2016-08-25T07:21:10.458Z,1756
2016-08-25T07:22:09.046Z,1768
2016-08-25T07:23:10.455Z,1768
2016-08-25T07:24:09.030Z,1776
2016-08-25T07:25:09.737Z,1780
2016-08-25T07:26:09.723Z,1784
2016-08-25T07:27:09.719Z,1792
2016-08-25T07:28:09.724Z,1796
2016-08-25T07:29:09.002Z,1800
2016-08-25T07:30:10.406Z,1808
2016-08-25T07:31:09.698Z,1816
2016-08-25T07:32:09.696Z,1816
2016-08-25T07:33:09.683Z,1824
2016-08-25T07:34:08.975Z,1796
2016-08-25T07:35:09.674Z,1832
2016-08-25T07:36:09.668Z,1840
2016-08-25T07:37:08.951Z,1844
2016-08-25T07:38:08.948Z,1848
2016-08-25T07:39:10.355Z,1852
2016-08-25T07:40:09.641Z,1864
2016-08-25T07:41:08.925Z,1864
2016-08-25T07:42:09.633Z,1868
2016-08-25T07:43:09.615Z,1872
2016-08-25T07:44:08.913Z,1872
2016-08-25T07:45:09.611Z,1876
2016-08-25T07:46:09.599Z,1876
2016-08-25T07:47:10.307Z,1888
2016-08-25T07:48:08.892Z,1896
2016-08-25T07:49:10.297Z,1896
2016-08-25T07:50:09.592Z,1900
2016-08-25T07:51:08.869Z,1904
2016-08-25T07:52:10.298Z,1908
2016-08-25T07:53:08.877Z,1916
2016-08-25T07:54:10.276Z,1924
2016-08-25T07:55:10.260Z,1932
2016-08-25T07:56:09.751Z,1960
2016-08-25T07:57:09.544Z,2004
2016-08-25T07:58:09.533Z,2056
2016-08-25T07:59:09.760Z,2076
2016-08-25T08:00:09.525Z,2120
2016-08-25T08:01:10.223Z,2180
2016-08-25T08:02:08.806Z,2244
2016-08-25T08:03:10.228Z,2324
2016-08-25T08:04:08.795Z,2392
2016-08-25T08:05:09.492Z,2480
2016-08-25T08:06:09.493Z,2616
2016-08-25T08:07:09.480Z,2704
2016-08-25T08:08:09.488Z,2752
2016-08-25T08:09:10.192Z,2788
2016-08-25T08:10:08.762Z,2832
2016-08-25T08:11:08.772Z,2876
2016-08-25T08:12:09.466Z,2944
2016-08-25T08:13:10.161Z,3028
2016-08-25T08:14:08.743Z,10180
2016-08-25T08:15:09.451Z,32128
2016-08-25T08:16:08.724Z,38144
2016-08-25T08:17:08.724Z,39776
2016-08-25T08:18:09.434Z,38560
2016-08-25T08:19:08.720Z,35008
2016-08-25T08:20:09.419Z,31296
2016-08-25T08:21:09.412Z,15520
2016-08-25T08:22:09.419Z,4812
2016-08-25T08:23:10.120Z,4252
2016-08-25T08:24:09.401Z,9916
2016-08-25T08:25:10.115Z,14968
2016-08-25T08:26:10.100Z,15192
2016-08-25T08:27:09.385Z,15084
2016-08-25T08:28:10.092Z,15220
2016-08-25T08:29:08.674Z,14808
2016-08-25T08:30:09.374Z,15904
2016-08-25T08:31:09.371Z,19776
2016-08-25T08:32:08.657Z,32352
2016-08-25T08:33:09.360Z,34560
2016-08-25T08:34:09.357Z,22272
2016-08-25T08:35:09.354Z,28704
2016-08-25T08:36:10.053Z,16384
2016-08-25T08:37:09.350Z,16384
2016-08-25T08:38:10.041Z,8640
2016-08-25T08:39:08.632Z,11908
2016-08-25T08:40:10.751Z,7520
2016-08-25T08:41:09.335Z,5680
2016-08-25T08:42:10.742Z,4576
2016-08-25T08:43:09.323Z,7072
2016-08-25T08:44:08.615Z,4160
2016-08-25T08:45:08.608Z,2812
2016-08-25T08:46:10.017Z,2640
2016-08-25T08:47:09.315Z,3180
2016-08-25T08:48:09.306Z,2964
2016-08-25T08:49:10.739Z,2824
2016-08-25T08:50:10.013Z,2516
2016-08-25T08:51:08.598Z,2524
2016-08-25T08:52:10.000Z,2600
2016-08-25T08:53:09.292Z,2712
2016-08-25T08:54:09.285Z,3728
2016-08-25T08:55:08.625Z,7228
2016-08-25T08:56:08.580Z,9504
2016-08-25T08:57:09.273Z,10312
2016-08-25T08:58:09.270Z,5544
2016-08-25T08:59:09.973Z,4960
2016-08-25T09:00:09.257Z,3900
2016-08-25T09:01:08.550Z,3720
2016-08-25T09:02:09.278Z,3552
2016-08-25T09:03:08.538Z,2756
2016-08-25T09:04:09.247Z,2744
2016-08-25T09:05:09.238Z,3252
2016-08-25T09:06:09.234Z,4408
2016-08-25T09:07:08.549Z,6944
2016-08-25T09:08:09.229Z,10220
2016-08-25T09:09:09.235Z,15744
2016-08-25T09:10:08.515Z,11680
2016-08-25T09:11:09.219Z,8876
2016-08-25T09:12:09.216Z,12712
2016-08-25T09:13:09.922Z,9508
2016-08-25T09:14:09.919Z,8080
2016-08-25T09:15:10.638Z,3604
2016-08-25T09:16:09.203Z,5316
2016-08-25T09:17:09.205Z,7532
2016-08-25T09:18:09.189Z,16024
2016-08-25T09:19:09.194Z,20096
2016-08-25T09:20:08.478Z,3720
2016-08-25T09:21:10.127Z,3760
2016-08-25T09:22:09.177Z,2676
2016-08-25T09:23:09.173Z,2864
2016-08-25T09:24:09.163Z,3080
2016-08-25T09:25:09.207Z,2708
2016-08-25T09:26:09.879Z,2700
2016-08-25T09:27:09.870Z,2500
2016-08-25T09:28:09.869Z,3224
2016-08-25T09:29:10.625Z,3948
2016-08-25T09:30:09.892Z,3008
2016-08-25T09:31:08.430Z,3136
2016-08-25T09:32:09.845Z,4884
2016-08-25T09:33:08.423Z,7816
2016-08-25T09:34:09.130Z,6160
2016-08-25T09:35:09.844Z,4660
2016-08-25T09:36:09.830Z,2748
2016-08-25T09:37:09.126Z,2532
2016-08-25T09:38:09.104Z,2640
2016-08-25T09:39:09.151Z,2540
2016-08-25T09:40:09.101Z,2784
2016-08-25T09:41:09.095Z,2536
2016-08-25T09:42:09.091Z,2528
2016-08-25T09:43:09.871Z,2512
2016-08-25T09:44:09.085Z,2524
2016-08-25T09:45:09.091Z,2536
2016-08-25T09:46:09.135Z,2544
2016-08-25T09:47:08.375Z,2568
2016-08-25T09:48:08.415Z,2584
2016-08-25T09:49:10.497Z,2556
2016-08-25T09:50:09.773Z,2552
2016-08-25T09:51:09.059Z,2556
2016-08-25T09:52:09.048Z,2548
2016-08-25T09:53:09.755Z,2548
2016-08-25T09:54:09.760Z,2564
2016-08-25T09:55:09.752Z,2612
2016-08-25T09:56:09.956Z,2664
2016-08-25T09:57:09.738Z,3416
2016-08-25T09:58:09.022Z,2732
2016-08-25T09:59:09.029Z,6584
2016-08-25T10:00:09.776Z,4968
2016-08-25T10:01:09.721Z,2756
2016-08-25T10:02:08.304Z,4736
2016-08-25T10:03:09.712Z,5008
2016-08-25T10:04:09.702Z,2916
2016-08-25T10:05:09.706Z,2940
2016-08-25T10:06:08.290Z,2728
2016-08-25T10:07:09.701Z,2716
2016-08-25T10:08:09.697Z,2716
2016-08-25T10:09:08.979Z,2700
2016-08-25T10:10:09.685Z,2736
2016-08-25T10:11:09.678Z,2748
2016-08-25T10:12:09.670Z,2760
2016-08-25T10:13:08.982Z,3048
2016-08-25T10:14:08.254Z,3116
2016-08-25T10:15:08.258Z,4948
2016-08-25T10:16:08.241Z,6280
2016-08-25T10:17:09.703Z,5028
2016-08-25T10:18:08.941Z,4804
2016-08-25T10:19:08.994Z,3308
2016-08-25T10:20:08.223Z,3224
2016-08-25T10:21:09.647Z,3140
2016-08-25T10:22:09.654Z,3228
2016-08-25T10:23:08.919Z,3368
2016-08-25T10:24:09.636Z,3836
2016-08-25T10:25:08.912Z,3796
2016-08-25T10:26:09.616Z,7400
2016-08-25T10:27:08.913Z,16824
2016-08-25T10:28:09.608Z,5320
2016-08-25T10:29:08.912Z,5060
2016-08-25T10:30:08.189Z,4648
2016-08-25T10:31:08.182Z,4060
2016-08-25T10:32:08.180Z,3944
2016-08-25T10:33:08.171Z,3940
2016-08-25T10:34:08.883Z,6028
2016-08-25T10:35:09.594Z,8668
2016-08-25T10:36:08.892Z,9612
2016-08-25T10:37:10.293Z,18528
2016-08-25T10:38:09.625Z,15288
2016-08-25T10:39:09.581Z,7372
2016-08-25T10:40:08.888Z,7052
2016-08-25T10:41:08.214Z,7108
2016-08-25T10:42:08.148Z,7388
2016-08-25T10:43:08.841Z,11012
2016-08-25T10:44:09.543Z,11096
2016-08-25T10:45:09.543Z,8120
2016-08-25T10:46:08.832Z,14568
2016-08-25T10:47:10.241Z,14300
2016-08-25T10:48:08.835Z,16612
2016-08-25T10:49:08.127Z,19744
2016-08-25T10:50:09.528Z,13400
2016-08-25T10:51:08.109Z,7436
2016-08-25T10:52:08.102Z,9304
2016-08-25T10:53:08.830Z,11188
2016-08-25T10:54:10.217Z,31808
2016-08-25T10:55:08.094Z,29824
2016-08-25T10:56:08.799Z,57824
2016-08-25T10:57:08.795Z,52128
2016-08-25T10:58:08.089Z,46496
2016-08-25T10:59:08.794Z,38400
2016-08-25T11:00:08.787Z,20256
2016-08-25T11:01:09.508Z,27936
2016-08-25T11:02:08.793Z,31392
2016-08-25T11:03:08.780Z,18368
2016-08-25T11:04:08.781Z,19904
2016-08-25T11:05:09.484Z,19232
2016-08-25T11:06:09.487Z,22816
2016-08-25T11:07:08.070Z,44864
2016-08-25T11:08:09.497Z,46944
2016-08-25T11:09:08.067Z,76608
2016-08-25T11:10:09.480Z,82080
2016-08-25T11:11:08.775Z,68544
2016-08-25T11:12:08.775Z,70560
2016-08-25T11:13:09.479Z,72160
2016-08-25T11:14:08.072Z,80288
2016-08-25T11:15:08.779Z,84064
2016-08-25T11:16:08.069Z,88768
2016-08-25T11:17:08.074Z,91968
2016-08-25T11:18:08.083Z,92640
2016-08-25T11:19:08.791Z,91040
2016-08-25T11:20:08.092Z,86944
2016-08-25T11:21:08.808Z,81728
2016-08-25T11:22:09.505Z,75904
2016-08-25T11:23:09.507Z,72416
2016-08-25T11:24:08.147Z,70432
2016-08-25T11:25:09.517Z,70624
2016-08-25T11:26:08.807Z,73088
2016-08-25T11:27:08.143Z,77632
2016-08-25T11:28:09.541Z,81312
2016-08-25T11:29:10.250Z,80800
2016-08-25T11:30:08.846Z,79328
2016-08-25T11:31:08.124Z,78112
2016-08-25T11:32:08.835Z,77952
2016-08-25T11:33:08.843Z,77888
2016-08-25T11:34:08.864Z,79296
2016-08-25T11:35:10.282Z,81056
2016-08-25T11:36:08.872Z,81280
2016-08-25T11:37:08.880Z,79360
2016-08-25T11:38:08.872Z,79936
2016-08-25T11:39:09.583Z,80320
2016-08-25T11:40:09.610Z,78016
2016-08-25T11:41:09.607Z,75744
2016-08-25T11:42:09.605Z,76928
2016-08-25T11:43:09.614Z,80064
2016-08-25T11:44:08.909Z,83584
2016-08-25T11:46:08.931Z,87968
2016-08-25T11:47:08.228Z,89120
2016-08-25T11:48:08.937Z,88576
2016-08-25T11:49:09.660Z,86176
2016-08-25T11:50:09.686Z,84256
2016-08-25T11:51:08.265Z,82048
2016-08-25T11:52:08.975Z,83392
2016-08-25T11:53:08.284Z,86400
2016-08-25T11:54:09.003Z,90304
2016-08-25T11:55:08.988Z,94464
2016-08-25T11:56:09.216Z,99424
2016-08-25T11:57:08.301Z,103328
2016-08-25T11:58:08.318Z,104512
2016-08-25T11:59:08.321Z,104032
2016-08-25T12:00:09.041Z,102112
2016-08-25T12:01:08.333Z,98880
2016-08-25T12:02:09.056Z,95328
2016-08-25T12:03:08.358Z,91776
2016-08-25T12:04:08.363Z,91328
2016-08-25T12:05:09.080Z,91168
2016-08-25T12:06:08.391Z,92192
2016-08-25T12:07:09.109Z,94048
2016-08-25T12:08:09.111Z,95776
2016-08-25T12:09:08.413Z,95328
2016-08-25T12:10:09.834Z,94176
2016-08-25T12:11:08.429Z,92672
2016-08-25T12:12:09.866Z,90752
2016-08-25T12:13:08.458Z,88480
2016-08-25T12:14:08.464Z,87872
2016-08-25T12:15:09.891Z,88000
2016-08-25T12:16:09.892Z,88928
2016-08-25T12:17:08.514Z,89824
2016-08-25T12:18:09.208Z,90752
2016-08-25T12:19:09.235Z,90976
2016-08-25T12:20:09.213Z,90752
2016-08-25T12:21:08.529Z,90080
2016-08-25T12:22:08.534Z,89568
2016-08-25T12:23:09.254Z,89792
2016-08-25T12:24:08.561Z,90976
2016-08-25T12:25:08.580Z,93568
2016-08-25T12:26:09.295Z,97376
2016-08-25T12:27:09.995Z,101024
2016-08-25T12:28:09.292Z,103936
2016-08-25T12:29:08.601Z,104704
2016-08-25T12:30:09.320Z,103808
2016-08-25T12:31:09.327Z,104896
2016-08-25T12:32:08.623Z,106112
2016-08-25T12:33:09.340Z,103712
2016-08-25T12:34:08.699Z,101024
2016-08-25T12:35:09.363Z,95616
2016-08-25T12:36:09.365Z,89760
2016-08-25T12:37:09.383Z,84096
2016-08-25T12:38:09.395Z,81824
2016-08-25T12:39:08.693Z,84064
2016-08-25T12:40:09.437Z,88064
2016-08-25T12:41:09.420Z,90720
2016-08-25T12:42:08.721Z,94144
2016-08-25T12:43:09.446Z,96352
2016-08-25T12:44:09.454Z,94400
2016-08-25T12:45:10.162Z,90656
2016-08-25T12:46:08.766Z,86336
2016-08-25T12:47:08.772Z,81248
2016-08-25T12:48:09.487Z,76608
2016-08-25T12:49:09.499Z,75680
2016-08-25T12:50:09.559Z,78592
2016-08-25T12:51:08.815Z,83584
2016-08-25T12:52:08.817Z,86368
2016-08-25T12:53:08.835Z,89376
2016-08-25T12:54:09.553Z,91744
2016-08-25T12:55:09.560Z,90752
2016-08-25T12:56:08.913Z,87456
2016-08-25T12:57:08.871Z,86784
2016-08-25T12:58:08.880Z,85312
2016-08-25T12:59:08.896Z,83904
2016-08-25T13:00:08.899Z,83744
2016-08-25T13:01:09.624Z,83456
2016-08-25T13:02:08.926Z,81632
2016-08-25T13:03:09.644Z,79424
2016-08-25T13:04:08.942Z,78432
2016-08-25T13:05:09.658Z,79968
2016-08-25T13:06:09.670Z,83488
2016-08-25T13:07:08.972Z,88160
2016-08-25T13:08:09.693Z,92256
2016-08-25T13:09:09.700Z,98176
2016-08-25T13:10:08.993Z,98240
2016-08-25T13:11:09.718Z,97568
2016-08-25T13:12:09.725Z,95712
2016-08-25T13:13:09.730Z,92256
2016-08-25T13:14:09.745Z,88224
2016-08-25T13:15:09.763Z,83392
2016-08-25T13:16:09.047Z,81408
2016-08-25T13:17:09.072Z,81312
2016-08-25T13:18:09.074Z,81984
2016-08-25T13:19:09.795Z,80480
2016-08-25T13:20:09.085Z,78464
2016-08-25T13:21:09.100Z,78080
2016-08-25T13:22:09.822Z,78624
2016-08-25T13:23:09.823Z,77312
2016-08-25T13:24:09.127Z,76896
2016-08-25T13:25:09.137Z,79968
2016-08-25T13:26:09.848Z,85568
2016-08-25T13:27:09.866Z,90400
2016-08-25T13:28:09.874Z,92128
2016-08-25T13:29:10.585Z,92768
2016-08-25T13:30:09.887Z,91968
2016-08-25T13:31:09.186Z,90976
2016-08-25T13:32:09.194Z,89024
2016-08-25T13:33:09.911Z,89760
2016-08-25T13:34:09.215Z,92256
2016-08-25T13:35:09.225Z,93856
2016-08-25T13:36:09.228Z,93696
2016-08-25T13:37:09.962Z,92672
2016-08-25T13:38:09.249Z,90144
2016-08-25T13:39:09.963Z,87040
2016-08-25T13:40:10.687Z,86336